Time;durP1;ratioP1;P1;durP2;ratioP2;P2;SDS_P1;SDS_P2;PMS_P1;PMS_P2;Temp;Humidity;BMP_temperature;BMP_pressure;BME280_temperature;BME280_humidity;BME280_pressure;Samples;Min_cycle;Max_cycle;Signal;HPM_P1;HPM_P2
2023/04/02 00:00:17;;;;;;;0.43;0.40;;;;;;;9.35;100.00;99534.13;5032446;28;20187;-71
2023/04/02 00:02:58;;;;;;;0.47;0.47;;;;;;;9.35;100.00;99541.88;5033481;28;20224;-73
2023/04/02 00:05:33;;;;;;;1.13;0.50;;;;;;;9.32;100.00;99540.19;5034455;28;20241;-74
2023/04/02 00:08:09;;;;;;;0.93;0.50;;;;;;;9.30;100.00;99542.81;5035047;28;20202;-72
2023/04/02 00:10:50;;;;;;;0.87;0.53;;;;;;;9.28;100.00;99541.13;5030436;28;20187;-73
2023/04/02 00:13:15;;;;;;;0.67;0.30;;;;;;;9.23;100.00;99543.75;5036905;28;20705;-72
2023/04/02 00:15:45;;;;;;;1.07;0.50;;;;;;;9.25;100.00;99543.75;5029318;28;20198;-72
2023/04/02 00:18:16;;;;;;;1.23;0.50;;;;;;;9.22;100.00;99544.66;5035006;28;20179;-72
2023/04/02 00:20:46;;;;;;;1.43;0.63;;;;;;;9.23;100.00;99537.75;5034665;28;20265;-73
2023/04/02 00:23:13;;;;;;;1.30;0.53;;;;;;;9.21;100.00;99536.94;5034575;28;20232;-73
2023/04/02 00:25:44;;;;;;;0.80;0.40;;;;;;;9.21;100.00;99544.66;5034006;28;20186;-73
2023/04/02 00:28:18;;;;;;;0.60;0.50;;;;;;;9.22;100.00;99547.25;5031810;28;20194;-72
2023/04/02 00:30:55;;;;;;;1.10;0.60;;;;;;;9.21;100.00;99548.13;5033323;28;20228;-73
2023/04/02 00:33:24;;;;;;;1.37;0.50;;;;;;;9.20;100.00;99551.56;5033984;28;20202;-71
2023/04/02 00:35:52;;;;;;;0.90;0.50;;;;;;;9.20;100.00;99548.13;5034043;28;20184;-72
2023/04/02 00:38:32;;;;;;;0.80;0.60;;;;;;;9.21;100.00;99548.13;5036363;28;20184;-72
2023/04/02 00:41:00;;;;;;;0.60;0.50;;;;;;;9.23;100.00;99541.19;5032921;28;20281;-72
2023/04/02 00:43:29;;;;;;;0.67;0.33;;;;;;;9.21;100.00;99548.13;5042054;28;20214;-74
2023/04/02 00:46:02;;;;;;;0.30;0.30;;;;;;;9.22;100.00;99551.53;5033726;28;20222;-73
2023/04/02 00:48:30;;;;;;;0.60;0.57;;;;;;;9.22;100.00;99547.25;5034784;28;20190;-72
2023/04/02 00:51:00;;;;;;;0.40;0.40;;;;;;;9.23;100.00;99548.09;5030719;28;20624;-73
2023/04/02 00:53:30;;;;;;;0.43;0.40;;;;;;;9.23;100.00;99550.66;5033328;28;20210;-73
2023/04/02 00:55:57;;;;;;;0.50;0.43;;;;;;;9.24;100.00;99550.63;5036186;28;20179;-72
2023/04/02 00:58:33;;;;;;;1.20;0.60;;;;;;;9.25;100.00;99547.19;5040855;28;20273;-72
2023/04/02 01:01:00;;;;;;;0.50;0.40;;;;;;;9.27;100.00;99549.75;5033182;28;20197;-72
2023/04/02 01:03:28;;;;;;;0.73;0.50;;;;;;;9.25;100.00;99549.75;5038261;28;20260;-72
2023/04/02 01:06:02;;;;;;;0.80;0.60;;;;;;;9.24;100.00;99552.38;5033017;28;20509;-72
2023/04/02 01:09:05;;;;;;;1.27;0.50;;;;;;;9.22;100.00;99552.41;5039062;28;20190;-72
2023/04/02 01:11:54;;;;;;;0.77;0.40;;;;;;;9.22;100.00;99554.13;5038548;28;20611;-73
2023/04/02 01:14:35;;;;;;;0.77;0.40;;;;;;;9.21;100.00;99555.88;5043496;28;20225;-72
2023/04/02 01:17:17;;;;;;;0.50;0.50;;;;;;;9.23;100.00;99558.41;5036220;28;20271;-72
2023/04/02 01:20:07;;;;;;;1.27;0.60;;;;;;;9.24;100.00;99560.97;5037190;28;20284;-73
2023/04/02 01:22:50;;;;;;;0.60;0.50;;;;;;;9.23;100.00;99558.41;5043806;28;20210;-73
2023/04/02 01:25:23;;;;;;;0.50;0.50;;;;;;;9.25;100.00;99561.81;5039855;28;20227;-73
2023/04/02 01:27:56;;;;;;;0.50;0.40;;;;;;;9.24;100.00;99568.69;5039959;28;20190;-74
2023/04/02 01:30:22;;;;;;;0.87;0.40;;;;;;;9.24;100.00;99563.53;5036105;28;20595;-75
2023/04/02 01:32:48;;;;;;;0.53;0.50;;;;;;;9.27;100.00;99567.81;5046641;28;20215;-75
2023/04/02 01:35:14;;;;;;;0.60;0.50;;;;;;;9.25;100.00;99569.56;5043360;28;20983;-71
2023/04/02 01:37:54;;;;;;;1.07;0.60;;;;;;;9.27;100.00;99575.56;5036975;28;20191;-73
2023/04/02 01:40:29;;;;;;;0.57;0.50;;;;;;;9.29;100.00;99571.25;5048386;28;20647;-73
2023/04/02 01:43:28;;;;;;;0.73;0.40;;;;;;;9.31;100.00;99572.03;5048545;28;20218;-74
2023/04/02 01:45:56;;;;;;;0.60;0.40;;;;;;;9.30;100.00;99575.53;5021803;28;20226;-73
2023/04/02 01:48:26;;;;;;;0.70;0.53;;;;;;;9.31;100.00;99574.63;5034519;28;20183;-74
2023/04/02 01:50:55;;;;;;;0.50;0.50;;;;;;;9.31;100.00;99577.22;5035916;28;20199;-72
2023/04/02 01:53:23;;;;;;;0.67;0.50;;;;;;;9.31;100.00;99577.22;5041957;28;20601;-73
2023/04/02 01:55:54;;;;;;;0.40;0.40;;;;;;;9.33;100.00;99584.94;5047582;28;20178;-72
2023/04/02 01:58:26;;;;;;;1.07;0.60;;;;;;;9.35;100.00;99584.03;5050600;28;20209;-72
2023/04/02 02:01:04;;;;;;;1.13;0.70;;;;;;;9.37;100.00;99591.78;5038381;28;20278;-72
2023/04/02 02:03:30;;;;;;;0.87;0.63;;;;;;;9.35;100.00;99581.47;5038626;28;20210;-74
2023/04/02 02:05:56;;;;;;;0.73;0.60;;;;;;;9.33;100.00;99583.19;5040399;28;20210;-73
2023/04/02 02:08:31;;;;;;;0.87;0.60;;;;;;;9.33;100.00;99585.78;5051994;28;20199;-73
2023/04/02 02:10:57;;;;;;;1.17;0.60;;;;;;;9.32;100.00;99583.25;5042241;28;20272;-73
2023/04/02 02:13:22;;;;;;;0.90;0.60;;;;;;;9.32;100.00;99591.81;5036151;28;20230;-72
2023/04/02 02:15:48;;;;;;;0.80;0.60;;;;;;;9.31;100.00;99597.88;5034147;28;20444;-73
2023/04/02 02:18:18;;;;;;;0.87;0.50;;;;;;;9.32;100.00;99599.56;5039279;28;20552;-73
2023/04/02 02:20:43;;;;;;;1.13;0.70;;;;;;;9.30;100.00;99604.78;5036559;28;20745;-73
2023/04/02 02:23:11;;;;;;;0.80;0.60;;;;;;;9.30;100.00;99594.44;5058254;28;20210;-74
2023/04/02 02:25:36;;;;;;;1.00;0.77;;;;;;;9.28;100.00;99605.69;5036701;28;20210;-73
2023/04/02 02:28:20;;;;;;;0.83;0.80;;;;;;;9.28;100.00;99603.09;5040781;28;20210;-72
2023/04/02 02:31:06;;;;;;;0.60;0.60;;;;;;;9.24;100.00;99602.25;5039808;28;20209;-72
2023/04/02 02:33:38;;;;;;;0.80;0.70;;;;;;;9.24;100.00;99615.19;5032945;28;20293;-73
2023/04/02 02:36:12;;;;;;;0.70;0.60;;;;;;;9.22;100.00;99613.50;5038085;28;20190;-73
2023/04/02 02:38:45;;;;;;;0.60;0.60;;;;;;;9.23;100.00;99608.31;5034454;28;20229;-73
2023/04/02 02:41:20;;;;;;;1.17;0.70;;;;;;;9.24;100.00;99615.19;5037950;28;20191;-73
2023/04/02 02:43:56;;;;;;;1.00;0.60;;;;;;;9.25;100.00;99616.03;5036989;28;20253;-73
2023/04/02 02:46:25;;;;;;;0.70;0.60;;;;;;;9.23;100.00;99618.63;5033343;28;20884;-73
2023/04/02 02:48:54;;;;;;;1.13;0.70;;;;;;;9.23;100.00;99622.97;5038798;28;20191;-72
2023/04/02 02:51:40;;;;;;;1.20;0.80;;;;;;;9.21;100.00;99624.69;5033257;28;20197;-73
2023/04/02 02:54:06;;;;;;;1.40;0.70;;;;;;;9.19;100.00;99623.88;5035821;28;20246;-72
2023/04/02 02:56:37;;;;;;;0.80;0.60;;;;;;;9.18;100.00;99625.59;5037126;28;20191;-74
2023/04/02 02:59:06;;;;;;;0.97;0.60;;;;;;;9.21;100.00;99632.44;5037677;28;20664;-74
2023/04/02 03:01:32;;;;;;;1.47;0.60;;;;;;;9.20;100.00;99636.78;5038091;28;20260;-72
2023/04/02 03:03:58;;;;;;;0.80;0.70;;;;;;;9.21;100.00;99632.44;5042772;28;20211;-72
2023/04/02 03:06:24;;;;;;;1.17;0.70;;;;;;;9.20;100.00;99634.19;5037537;28;20222;-74
2023/04/02 03:08:55;;;;;;;0.80;0.60;;;;;;;9.21;100.00;99632.44;5047624;28;20194;-73
2023/04/02 03:11:26;;;;;;;0.97;0.67;;;;;;;9.23;100.00;99641.03;5037735;28;20205;-74
2023/04/02 03:13:59;;;;;;;2.03;0.80;;;;;;;9.23;100.00;99641.03;5040461;28;20306;-72
2023/04/02 03:16:36;;;;;;;0.70;0.63;;;;;;;9.21;100.00;99641.06;5041827;28;20190;-73
2023/04/02 03:19:08;;;;;;;0.73;0.70;;;;;;;9.21;100.00;99642.78;5057192;28;20191;-72
2023/04/02 03:21:48;;;;;;;1.17;0.70;;;;;;;9.23;100.00;99643.63;5043139;28;20191;-73
2023/04/02 03:24:45;;;;;;;2.00;0.87;;;;;;;9.20;100.00;99647.09;5039893;28;20184;-73
2023/04/02 03:27:17;;;;;;;1.20;0.70;;;;;;;9.19;100.00;99653.13;5035839;28;20552;-73
2023/04/02 03:29:57;;;;;;;0.60;0.60;;;;;;;9.19;100.00;99655.72;5048879;28;20202;-73
2023/04/02 03:32:27;;;;;;;1.00;0.67;;;;;;;9.19;100.00;99650.56;5043236;28;20878;-73
2023/04/02 03:34:58;;;;;;;1.20;0.90;;;;;;;9.19;100.00;99657.44;5035596;28;20230;-73
2023/04/02 03:37:43;;;;;;;0.70;0.70;;;;;;;9.17;100.00;99665.22;5033812;28;20648;-74
2023/04/02 03:40:30;;;;;;;1.17;0.70;;;;;;;9.16;100.00;99668.66;5035441;28;20275;-73
2023/04/02 03:43:05;;;;;;;0.77;0.70;;;;;;;9.14;100.00;99662.66;5038779;28;20207;-73
2023/04/02 03:45:55;;;;;;;1.20;0.50;;;;;;;9.14;100.00;99662.66;5037759;28;20259;-73
2023/04/02 03:48:49;;;;;;;1.00;0.60;;;;;;;9.11;100.00;99668.72;5039661;28;20278;-73
2023/04/02 03:51:36;;;;;;;0.63;0.60;;;;;;;9.12;100.00;99677.31;5030894;28;21166;-73
2023/04/02 03:54:03;;;;;;;0.67;0.60;;;;;;;9.12;100.00;99667.84;5038251;28;20234;-73
2023/04/02 03:56:38;;;;;;;0.80;0.70;;;;;;;9.12;100.00;99677.31;5037200;28;20186;-73
2023/04/02 03:59:41;;;;;;;0.93;0.60;;;;;;;9.12;100.00;99672.16;5051445;28;20175;-75
2023/04/02 04:02:25;;;;;;;0.97;0.80;;;;;;;9.12;100.00;99677.31;5041288;28;20651;-73
2023/04/02 04:04:52;;;;;;;1.10;0.80;;;;;;;9.13;100.00;99679.03;5031788;28;20183;-73
2023/04/02 04:07:29;;;;;;;0.83;0.80;;;;;;;9.14;100.00;99681.59;5042007;28;20183;-73
2023/04/02 04:09:56;;;;;;;0.73;0.63;;;;;;;9.15;100.00;99687.59;5032505;28;20562;-74
2023/04/02 04:12:34;;;;;;;1.20;0.87;;;;;;;9.17;100.00;99688.44;5036263;28;20320;-72
2023/04/02 04:15:08;;;;;;;0.80;0.60;;;;;;;9.18;100.00;99681.53;5033782;28;20263;-73
2023/04/02 04:18:00;;;;;;;1.23;0.60;;;;;;;9.19;100.00;99686.69;5042566;28;20653;-73
2023/04/02 04:20:55;;;;;;;1.90;0.83;;;;;;;9.20;100.00;99687.53;5028008;28;20271;-73
2023/04/02 04:23:29;;;;;;;0.93;0.80;;;;;;;9.19;100.00;99693.56;5028810;28;20781;-73
2023/04/02 04:26:18;;;;;;;1.10;0.90;;;;;;;9.17;100.00;99693.59;5032103;28;20305;-73
2023/04/02 04:29:24;;;;;;;1.20;0.87;;;;;;;9.17;100.00;99700.47;5042386;28;20190;-74
2023/04/02 04:31:53;;;;;;;1.30;0.90;;;;;;;9.16;100.00;99704.81;5030362;28;20646;-73
2023/04/02 04:34:28;;;;;;;1.23;0.90;;;;;;;9.17;100.00;99710.81;5037919;28;20190;-73
2023/04/02 04:37:00;;;;;;;1.67;0.80;;;;;;;9.13;100.00;99716.03;5034356;28;20183;-74
2023/04/02 04:39:48;;;;;;;0.93;0.80;;;;;;;9.13;100.00;99716.03;5035945;28;20172;-73
2023/04/02 04:42:19;;;;;;;2.30;0.83;;;;;;;9.14;100.00;99720.31;5030092;28;20269;-74
2023/04/02 04:44:59;;;;;;;1.13;0.80;;;;;;;9.13;100.00;99725.50;5030321;28;20337;-72
2023/04/02 04:47:49;;;;;;;1.97;1.00;;;;;;;9.10;100.00;99728.97;5033285;28;20198;-73
2023/04/02 04:50:29;;;;;;;1.33;0.90;;;;;;;9.09;100.00;99734.13;5030641;28;20187;-74
2023/04/02 04:52:55;;;;;;;1.37;0.80;;;;;;;9.07;100.00;99739.31;5030921;28;20215;-74
2023/04/02 04:55:29;;;;;;;1.13;0.80;;;;;;;9.09;100.00;99747.91;5031692;28;20571;-73
2023/04/02 04:58:22;;;;;;;1.40;0.90;;;;;;;9.09;100.00;99747.91;5051017;28;20618;-72
2023/04/02 05:01:13;;;;;;;1.20;0.90;;;;;;;9.05;100.00;99751.38;5028425;28;20262;-73
2023/04/02 05:03:53;;;;;;;1.77;1.03;;;;;;;9.05;100.00;99759.13;5027657;28;20321;-73
2023/04/02 05:06:30;;;;;;;1.53;1.10;;;;;;;9.03;100.00;99763.44;5036533;28;20213;-72
2023/04/02 05:09:00;;;;;;;2.50;1.10;;;;;;;9.00;100.00;99771.22;5034071;28;20244;-72
2023/04/02 05:11:32;;;;;;;1.73;0.90;;;;;;;9.00;100.00;99766.06;5039543;28;20183;-73
2023/04/02 05:14:04;;;;;;;1.57;0.80;;;;;;;8.98;100.00;99770.41;5032314;28;20211;-73
2023/04/02 05:16:38;;;;;;;1.67;1.00;;;;;;;8.98;100.00;99766.09;5043081;28;20613;-73
2023/04/02 05:19:16;;;;;;;1.37;0.90;;;;;;;8.97;100.00;99768.69;5035997;28;20221;-73
2023/04/02 05:22:06;;;;;;;1.87;1.20;;;;;;;8.95;100.00;99784.19;5036806;28;20225;-74
2023/04/02 05:24:41;;;;;;;1.00;0.90;;;;;;;8.95;100.00;99785.91;5039173;28;20192;-73
2023/04/02 05:27:23;;;;;;;1.20;1.00;;;;;;;8.96;100.00;99791.06;5039142;28;20762;-72
2023/04/02 05:30:01;;;;;;;1.47;0.87;;;;;;;8.97;100.00;99794.50;5054002;28;20186;-73
2023/04/02 05:32:39;;;;;;;1.73;1.20;;;;;;;8.95;100.00;99789.34;5040937;28;20206;-73
2023/04/02 05:35:06;;;;;;;1.20;1.00;;;;;;;8.95;100.00;99796.25;5047439;28;20190;-73
2023/04/02 05:37:32;;;;;;;3.37;1.17;;;;;;;8.96;100.00;99793.63;5042488;28;20640;-72
2023/04/02 05:40:12;;;;;;;1.10;1.00;;;;;;;8.96;100.00;99801.38;5042137;28;20851;-72
2023/04/02 05:42:41;;;;;;;1.80;1.10;;;;;;;8.99;100.00;99810.84;5044463;28;20202;-73
2023/04/02 05:45:22;;;;;;;1.47;1.00;;;;;;;9.03;100.00;99811.66;5044006;28;20213;-73
2023/04/02 05:47:52;;;;;;;1.43;1.20;;;;;;;9.02;100.00;99818.53;5038215;28;20183;-73
2023/04/02 05:50:26;;;;;;;1.23;1.13;;;;;;;9.03;100.00;99815.06;5034738;28;20194;-73
2023/04/02 05:52:57;;;;;;;1.77;1.23;;;;;;;9.06;100.00;99814.22;5046106;28;20971;-73
2023/04/02 05:55:32;;;;;;;2.47;1.20;;;;;;;9.09;100.00;99816.72;5041873;28;20185;-74
2023/04/02 05:58:22;;;;;;;1.60;1.20;;;;;;;9.08;100.00;99810.72;5044628;28;20191;-73
2023/04/02 06:01:00;;;;;;;2.20;1.23;;;;;;;9.10;100.00;99824.47;5032743;28;20195;-73
2023/04/02 06:04:18;;;;;;;1.57;1.00;;;;;;;9.11;100.00;99822.75;5036227;28;20207;-73
2023/04/02 06:06:49;;;;;;;2.00;1.20;;;;;;;9.13;100.00;99826.16;5004690;28;20767;-74
2023/04/02 06:09:45;;;;;;;1.43;1.23;;;;;;;9.14;100.00;99830.47;5039016;28;20271;-72
2023/04/02 06:12:16;;;;;;;1.37;1.20;;;;;;;9.14;100.00;99839.06;5021742;28;20273;-73
2023/04/02 06:14:41;;;;;;;3.07;1.33;;;;;;;9.16;100.00;99841.63;5048198;28;20181;-73
2023/04/02 06:17:13;;;;;;;1.13;1.00;;;;;;;9.17;100.00;99848.50;5039348;28;20746;-73
2023/04/02 06:19:38;;;;;;;2.23;1.50;;;;;;;9.16;100.00;99846.78;5038952;28;20536;-72
2023/04/02 06:22:17;;;;;;;1.53;1.43;;;;;;;9.19;100.00;99859.69;5049279;28;20624;-72
2023/04/02 06:24:46;;;;;;;2.27;1.40;;;;;;;9.22;100.00;99863.94;5045606;28;20191;-73
2023/04/02 06:27:18;;;;;;;2.37;1.30;;;;;;;9.23;100.00;99861.34;5034496;28;20190;-74
2023/04/02 06:29:47;;;;;;;2.37;1.53;;;;;;;9.27;100.00;99865.59;5037460;28;20265;-73
2023/04/02 06:32:12;;;;;;;1.93;1.73;;;;;;;9.27;100.00;99864.75;5035591;28;20200;-73
2023/04/02 06:34:40;;;;;;;2.70;1.20;;;;;;;9.28;100.00;99876.81;5037896;28;20664;-72
2023/04/02 06:37:20;;;;;;;1.53;1.27;;;;;;;9.30;100.00;99875.06;5047284;28;20187;-73
2023/04/02 06:39:46;;;;;;;1.70;1.00;;;;;;;9.33;100.00;99884.50;5041518;28;20175;-72
2023/04/02 06:42:16;;;;;;;11.70;8.83;;;;;;;9.36;100.00;99874.97;5040842;28;20215;-73
2023/04/02 06:44:42;;;;;;;26.63;19.17;;;;;;;9.42;100.00;99884.38;5047252;28;20768;-73
2023/04/02 06:47:29;;;;;;;22.67;17.10;;;;;;;9.51;100.00;99888.59;5045124;28;20279;-72
2023/04/02 06:50:03;;;;;;;31.77;23.70;;;;;;;9.60;100.00;99891.09;5044714;28;20187;-74
2023/04/02 06:52:38;;;;;;;37.03;28.73;;;;;;;9.69;100.00;99905.63;5040768;28;20580;-74
2023/04/02 06:55:23;;;;;;;27.07;22.63;;;;;;;9.75;100.00;99905.56;5040176;28;20198;-73
2023/04/02 06:57:48;;;;;;;19.50;17.30;;;;;;;9.83;100.00;99906.31;5044295;28;20176;-74
2023/04/02 07:00:36;;;;;;;16.03;14.40;;;;;;;9.90;100.00;99904.53;5034901;28;20188;-73
2023/04/02 07:03:06;;;;;;;11.53;10.43;;;;;;;9.94;100.00;99918.25;5038621;28;20227;-72
2023/04/02 07:05:32;;;;;;;9.27;8.37;;;;;;;10.00;100.00;99921.63;5036975;28;20204;-74
2023/04/02 07:07:57;;;;;;;7.07;6.47;;;;;;;10.05;100.00;99929.31;5045257;28;20184;-73
2023/04/02 07:10:22;;;;;;;5.30;4.80;;;;;;;10.10;100.00;99924.09;5042734;28;20182;-73
2023/04/02 07:12:48;;;;;;;3.90;3.60;;;;;;;10.15;100.00;99923.16;5035204;28;20206;-73
2023/04/02 07:15:18;;;;;;;3.77;3.47;;;;;;;10.20;100.00;99929.13;5037316;28;20203;-74
2023/04/02 07:17:45;;;;;;;4.27;3.87;;;;;;;10.23;100.00;99933.38;5037778;28;20198;-73
2023/04/02 07:20:24;;;;;;;5.00;4.40;;;;;;;10.26;100.00;99935.09;5049194;28;20201;-73
2023/04/02 07:22:50;;;;;;;3.97;3.57;;;;;;;10.32;100.00;99940.16;5047813;28;20214;-73
2023/04/02 07:25:15;;;;;;;3.73;3.33;;;;;;;10.36;100.00;99941.84;5034889;28;20203;-73
2023/04/02 07:27:41;;;;;;;5.70;5.10;;;;;;;10.42;100.00;99944.41;5041872;28;20183;-73
2023/04/02 07:30:07;;;;;;;5.73;5.23;;;;;;;10.50;100.00;99941.69;5031995;28;20189;-73
2023/04/02 07:32:32;;;;;;;4.80;4.40;;;;;;;10.61;100.00;99951.88;5040407;28;20214;-74
2023/04/02 07:34:57;;;;;;;4.90;4.50;;;;;;;10.70;100.00;99956.94;5050732;28;20187;-72
2023/04/02 07:37:22;;;;;;;5.10;4.70;;;;;;;10.79;100.00;99956.78;5048001;28;20198;-73
2023/04/02 07:39:48;;;;;;;7.23;6.60;;;;;;;10.87;100.00;99953.25;5048785;28;20233;-74
2023/04/02 07:42:13;;;;;;;6.70;6.00;;;;;;;10.92;100.00;99960.06;5038330;28;20265;-72
2023/04/02 07:44:38;;;;;;;5.10;4.30;;;;;;;10.96;100.00;99964.31;5046153;28;20241;-73
2023/04/02 07:47:04;;;;;;;6.03;4.90;;;;;;;11.01;100.00;99965.94;5035633;28;20196;-74
2023/04/02 07:49:29;;;;;;;7.73;6.03;;;;;;;11.06;100.00;99970.16;5061223;28;20190;-72
2023/04/02 07:51:55;;;;;;;6.07;5.13;;;;;;;11.10;100.00;99974.44;5034261;28;20180;-73
2023/04/02 07:54:20;;;;;;;3.57;3.27;;;;;;;11.17;100.00;99979.53;5036186;28;20269;-74
2023/04/02 07:56:45;;;;;;;2.60;2.40;;;;;;;11.20;100.00;99984.63;5048139;28;20208;-72
2023/04/02 07:59:11;;;;;;;3.33;2.43;;;;;;;11.24;100.00;99988.88;5034176;28;20187;-73
2023/04/02 08:01:36;;;;;;;2.90;2.07;;;;;;;11.29;100.00;99987.09;5039633;28;20214;-72
2023/04/02 08:04:03;;;;;;;2.33;2.07;;;;;;;11.34;100.00;100005.13;5038259;28;20218;-72
2023/04/02 08:06:29;;;;;;;3.50;2.80;;;;;;;11.36;100.00;100001.63;5034528;28;20286;-73
2023/04/02 08:08:57;;;;;;;3.33;2.50;;;;;;;11.42;100.00;100009.31;5034095;28;20862;-73
2023/04/02 08:11:22;;;;;;;2.73;2.30;;;;;;;11.48;100.00;100007.50;5031583;28;20188;-73
2023/04/02 08:13:47;;;;;;;2.70;2.50;;;;;;;11.56;100.00;100005.63;5041607;28;20253;-73
2023/04/02 08:16:13;;;;;;;3.03;2.50;;;;;;;11.67;100.00;100006.28;5034549;28;20209;-73
2023/04/02 08:18:38;;;;;;;2.83;2.00;;;;;;;11.82;100.00;100012.06;5036581;28;20600;-75
2023/04/02 08:21:09;;;;;;;2.57;2.37;;;;;;;11.93;100.00;100012.75;5040159;28;20256;-73
2023/04/02 08:23:36;;;;;;;3.83;3.47;;;;;;;12.03;100.00;100016.00;5035001;28;20217;-72
2023/04/02 08:26:01;;;;;;;9.03;6.87;;;;;;;12.15;100.00;100018.41;5030999;28;20215;-73
2023/04/02 08:28:26;;;;;;;7.10;6.00;;;;;;;12.26;100.00;100019.91;5032710;28;20204;-73
2023/04/02 08:30:52;;;;;;;6.70;4.93;;;;;;;12.41;100.00;100023.91;5034073;28;20199;-73
2023/04/02 08:33:18;;;;;;;5.27;4.77;;;;;;;12.57;100.00;100035.69;5028653;28;20694;-74
2023/04/02 08:35:45;;;;;;;3.83;3.30;;;;;;;12.75;100.00;100031.84;5031317;28;20650;-73
2023/04/02 08:38:15;;;;;;;7.50;6.80;;;;;;;12.95;100.00;100030.53;5031473;28;20580;-73
2023/04/02 08:40:44;;;;;;;6.53;4.90;;;;;;;13.13;100.00;100036.19;5036022;28;20192;-73
2023/04/02 08:43:43;;;;;;;6.70;6.10;;;;;;;13.29;100.00;100036.69;5032974;28;20219;-73
2023/04/02 08:46:24;;;;;;;7.33;6.73;;;;;;;13.41;100.00;100047.66;5038384;28;20222;-74
2023/04/02 08:49:03;;;;;;;5.10;4.70;;;;;;;13.51;100.00;100052.66;5039341;28;20206;-73
2023/04/02 08:51:33;;;;;;;4.23;3.90;;;;;;;13.63;100.00;100054.06;5036022;28;20185;-74
2023/04/02 08:54:07;;;;;;;5.90;5.40;;;;;;;13.78;100.00;100058.88;5049791;28;20832;-73
2023/04/02 08:56:43;;;;;;;5.30;4.90;;;;;;;14.00;100.00;100053.13;5035798;28;20195;-73
2023/04/02 08:59:23;;;;;;;5.97;5.47;;;;;;;14.24;100.00;100050.72;5048545;28;20251;-74
2023/04/02 09:02:05;;;;;;;4.30;4.00;;;;;;;14.51;100.00;100059.50;5032105;28;20725;-74
2023/04/02 09:04:32;;;;;;;3.30;3.03;;;;;;;14.76;99.73;100061.41;5040534;28;20191;-74
2023/04/02 09:06:59;;;;;;;3.17;2.97;;;;;;;14.94;98.68;100060.03;5040586;28;20223;-73
2023/04/02 09:09:26;;;;;;;2.80;2.60;;;;;;;15.09;97.38;100066.50;5040398;28;20187;-72
2023/04/02 09:12:02;;;;;;;2.23;1.83;;;;;;;15.21;96.55;100073.94;5030216;28;20210;-73
2023/04/02 09:14:50;;;;;;;2.53;2.33;;;;;;;15.26;95.71;100076.41;5035144;28;20260;-72
2023/04/02 09:17:21;;;;;;;2.97;2.77;;;;;;;15.39;95.20;100077.72;5041139;28;20218;-73
2023/04/02 09:20:16;;;;;;;2.63;2.17;;;;;;;15.55;94.47;100083.28;5044071;28;20195;-73
2023/04/02 09:22:44;;;;;;;2.53;2.33;;;;;;;15.74;93.33;100087.88;5039231;28;20261;-74
2023/04/02 09:25:15;;;;;;;2.60;2.40;;;;;;;15.94;92.55;100084.63;5039148;28;20200;-73
2023/04/02 09:27:41;;;;;;;5.00;4.53;;;;;;;16.21;91.38;100092.38;5029216;28;20191;-74
2023/04/02 09:30:31;;;;;;;5.37;4.47;;;;;;;16.46;89.32;100094.13;5039558;28;20719;-73
2023/04/02 09:33:01;;;;;;;5.70;5.10;;;;;;;16.65;88.54;100101.28;5031590;28;20208;-74
2023/04/02 09:35:28;;;;;;;4.70;4.30;;;;;;;16.87;88.20;100103.94;5033173;28;20297;-74
2023/04/02 09:38:44;;;;;;;9.17;8.13;;;;;;;17.04;87.30;100104.16;5033873;28;20195;-73
2023/04/02 09:41:20;;;;;;;5.63;5.13;;;;;;;17.22;86.77;100112.22;4987445;28;20619;-73
2023/04/02 09:43:45;;;;;;;7.10;6.43;;;;;;;17.34;86.19;100113.50;5033394;28;20351;-74
2023/04/02 09:46:22;;;;;;;4.80;4.40;;;;;;;17.47;85.32;100117.31;5027566;28;20297;-73
2023/04/02 09:48:59;;;;;;;7.27;6.67;;;;;;;17.62;85.23;100114.97;5035439;28;20227;-72
2023/04/02 09:51:27;;;;;;;4.70;4.30;;;;;;;17.77;84.74;100116.13;5035227;28;20749;-73
2023/04/02 09:54:01;;;;;;;3.07;2.80;;;;;;;17.98;83.72;100115.25;5037933;28;20206;-73
2023/04/02 09:56:28;;;;;;;2.77;2.57;;;;;;;18.16;82.66;100123.22;5042953;28;20736;-72
2023/04/02 09:59:20;;;;;;;2.27;2.07;;;;;;;18.31;82.18;100113.00;5036445;28;20190;-73
2023/04/02 10:02:06;;;;;;;1.47;1.37;;;;;;;18.39;81.61;100118.72;5034701;28;20225;-74
2023/04/02 10:04:46;;;;;;;0.90;0.90;;;;;;;18.55;80.13;100119.75;5028803;28;20229;-73
2023/04/02 10:07:31;;;;;;;1.10;0.90;;;;;;;18.57;79.83;100115.28;5034040;28;20271;-73
2023/04/02 10:10:03;;;;;;;0.80;0.80;;;;;;;18.59;79.84;100120.50;5049798;28;20188;-73
2023/04/02 10:12:35;;;;;;;1.03;0.97;;;;;;;18.63;80.35;100126.44;5031192;28;20218;-73
2023/04/02 10:15:03;;;;;;;0.90;0.90;;;;;;;18.67;80.07;100123.59;5037954;28;20250;-74
2023/04/02 10:17:32;;;;;;;0.57;0.57;;;;;;;18.66;79.64;100132.38;5034980;28;20197;-75
2023/04/02 10:20:05;;;;;;;0.60;0.57;;;;;;;18.64;79.36;100136.00;5033729;28;20207;-74
2023/04/02 10:22:31;;;;;;;0.70;0.60;;;;;;;18.66;79.37;100132.38;5043060;28;20203;-73
2023/04/02 10:24:57;;;;;;;1.17;0.80;;;;;;;18.70;78.64;100133.94;5036421;28;20194;-74
2023/04/02 10:27:36;;;;;;;0.40;0.40;;;;;;;18.74;78.34;100129.41;5032567;28;20213;-73
2023/04/02 10:30:14;;;;;;;0.70;0.57;;;;;;;18.81;78.19;100141.34;5034923;28;20949;-75
2023/04/02 10:32:59;;;;;;;1.07;0.50;;;;;;;18.86;77.68;100144.56;5039569;28;20576;-73
2023/04/02 10:35:30;;;;;;;0.60;0.50;;;;;;;18.96;76.82;100138.97;5032876;28;20191;-72
2023/04/02 10:38:33;;;;;;;0.50;0.50;;;;;;;19.20;75.59;100134.34;5031264;28;20183;-73
2023/04/02 10:41:25;;;;;;;0.97;0.40;;;;;;;19.39;74.76;100143.94;5033625;28;20179;-74
2023/04/02 10:44:28;;;;;;;0.30;0.30;;;;;;;19.56;74.53;100143.97;5035763;28;20247;-73
2023/04/02 10:47:20;;;;;;;1.13;0.20;;;;;;;19.61;74.81;100149.84;5035406;28;20878;-74
2023/04/02 10:49:58;;;;;;;0.40;0.30;;;;;;;19.66;73.33;100149.63;5036612;28;20182;-73
2023/04/02 10:52:33;;;;;;;0.67;0.30;;;;;;;19.74;73.26;100152.69;5034655;28;20211;-74
2023/04/02 10:55:16;;;;;;;1.30;0.33;;;;;;;19.74;73.14;100163.19;5031831;28;20823;-73
2023/04/02 10:57:43;;;;;;;0.70;0.43;;;;;;;19.64;72.05;100160.22;5052075;28;20681;-72
2023/04/02 11:00:15;;;;;;;0.20;0.20;;;;;;;19.52;72.29;100162.56;5035099;28;20188;-74
2023/04/02 11:02:56;;;;;;;0.30;0.30;;;;;;;19.31;71.33;100166.16;5036458;28;20927;-74
2023/04/02 11:05:24;;;;;;;0.30;0.30;;;;;;;19.05;72.03;100164.75;5036452;28;20211;-73
2023/04/02 11:07:59;;;;;;;0.27;0.27;;;;;;;18.80;72.55;100170.22;5032283;28;20228;-74
2023/04/02 11:10:29;;;;;;;0.30;0.30;;;;;;;18.51;72.62;100180.22;5033044;28;20194;-72
2023/04/02 11:13:01;;;;;;;0.47;0.40;;;;;;;18.25;72.69;100172.59;5032994;28;20711;-73
2023/04/02 11:15:28;;;;;;;0.87;0.63;;;;;;;17.92;74.20;100180.06;5035976;28;20271;-72
2023/04/02 11:17:54;;;;;;;2.10;0.80;;;;;;;17.74;75.03;100179.91;5037968;28;20274;-74
2023/04/02 11:20:42;;;;;;;0.67;0.60;;;;;;;17.52;75.34;100180.78;5035024;28;20765;-73
2023/04/02 11:23:13;;;;;;;0.67;0.47;;;;;;;17.29;75.99;100192.16;5035380;28;20212;-74
2023/04/02 11:25:40;;;;;;;0.50;0.40;;;;;;;17.08;75.62;100193.81;5034033;28;20396;-73
2023/04/02 11:28:28;;;;;;;0.40;0.30;;;;;;;16.94;76.29;100194.28;5032748;28;20199;-74
2023/04/02 11:30:54;;;;;;;0.63;0.47;;;;;;;16.87;75.99;100201.50;5030930;28;20278;-72
2023/04/02 11:33:41;;;;;;;0.40;0.33;;;;;;;16.75;75.96;100202.78;5033756;28;20308;-72
2023/04/02 11:36:44;;;;;;;0.80;0.30;;;;;;;16.68;75.07;100213.50;5031233;28;20190;-74
2023/04/02 11:39:10;;;;;;;1.20;0.40;;;;;;;16.29;73.57;100202.66;5049242;28;20262;-71
2023/04/02 11:42:01;;;;;;;0.40;0.40;;;;;;;16.12;74.21;100203.22;5035523;28;20213;-72
2023/04/02 11:44:26;;;;;;;0.40;0.30;;;;;;;16.11;74.55;100205.88;5030853;28;20190;-71
2023/04/02 11:46:51;;;;;;;0.40;0.40;;;;;;;16.17;74.44;100210.03;5034938;28;20273;-71
2023/04/02 11:49:38;;;;;;;0.50;0.40;;;;;;;16.21;74.74;100219.50;5029302;28;20189;-73
2023/04/02 11:52:17;;;;;;;0.70;0.67;;;;;;;16.10;78.05;100223.31;5032691;28;20329;-74
2023/04/02 11:54:43;;;;;;;1.20;0.80;;;;;;;15.93;78.91;100216.03;5034957;28;20184;-73
2023/04/02 11:57:23;;;;;;;0.60;0.50;;;;;;;15.88;80.42;100217.94;5034599;28;21031;-76
2023/04/02 12:00:19;;;;;;;0.67;0.60;;;;;;;15.85;80.70;100218.03;5036008;28;20186;-72
2023/04/02 12:03:12;;;;;;;0.87;0.70;;;;;;;15.64;81.34;100225.59;5032538;28;20252;-74